Time;durP1;ratioP1;P1;durP2;ratioP2;P2;SDS_P1;SDS_P2;PMS_P1;PMS_P2;Temp;Humidity;BMP_temperature;BMP_pressure;BME280_temperature;BME280_humidity;BME280_pressure;Samples;Min_cycle;Max_cycle;Signal;HPM_P1;HPM_P2
2022/01/01 00:00:27;;;;;;;111.60;31.80;;;9.10;99.90;;;;;;4974479;28;20038;-81
2022/01/01 00:02:54;;;;;;;90.47;29.30;;;9.10;99.90;;;;;;4956268;28;20045;-81
2022/01/01 00:05:20;;;;;;;89.32;28.02;;;9.20;99.90;;;;;;4977709;28;20046;-81
2022/01/01 00:07:45;;;;;;;101.90;30.73;;;9.20;99.90;;;;;;5000819;28;20121;-81
2022/01/01 00:10:11;;;;;;;95.63;30.53;;;9.20;99.90;;;;;;4974772;28;20041;-81
2022/01/01 00:12:41;;;;;;;97.97;32.87;;;9.20;99.90;;;;;;4970080;28;20070;-81
2022/01/01 00:15:14;;;;;;;111.57;33.63;;;9.20;99.90;;;;;;4998807;28;20042;-80
2022/01/01 00:17:42;;;;;;;102.35;35.88;;;9.20;99.90;;;;;;4989421;28;20038;-80
2022/01/01 00:20:09;;;;;;;98.60;35.00;;;9.20;99.90;;;;;;4975734;28;20042;-80
2022/01/01 00:22:43;;;;;;;94.78;32.70;;;9.10;99.90;;;;;;4972948;28;20094;-80
2022/01/01 00:25:10;;;;;;;110.78;34.95;;;9.10;99.90;;;;;;5012565;28;20130;-80
2022/01/01 00:27:36;;;;;;;104.95;38.75;;;9.10;99.90;;;;;;4971533;28;20047;-80
2022/01/01 00:30:06;;;;;;;105.77;38.93;;;9.10;99.90;;;;;;4970418;28;20053;-82
2022/01/01 00:32:37;;;;;;;102.60;35.10;;;9.10;99.90;;;;;;4978085;28;20038;-82
2022/01/01 00:35:04;;;;;;;96.75;32.15;;;9.10;99.90;;;;;;5012948;28;20043;-82
2022/01/01 00:37:29;;;;;;;95.15;30.67;;;9.10;99.90;;;;;;4968807;28;20042;-81
2022/01/01 00:39:55;;;;;;;83.63;26.13;;;9.00;99.90;;;;;;4967770;28;20039;-81
2022/01/01 00:42:24;;;;;;;83.17;23.13;;;9.00;99.90;;;;;;4954154;28;20114;-81
2022/01/01 00:44:52;;;;;;;80.07;23.48;;;9.00;99.90;;;;;;4965635;28;20051;-81
2022/01/01 00:47:17;;;;;;;85.60;22.77;;;9.00;99.90;;;;;;4970227;28;20238;-81
2022/01/01 00:49:43;;;;;;;80.80;23.50;;;9.00;99.90;;;;;;4953145;28;20358;-81
2022/01/01 00:52:09;;;;;;;82.70;24.05;;;8.90;99.90;;;;;;4967859;28;20039;-81
2022/01/01 00:54:35;;;;;;;82.30;24.98;;;8.90;99.90;;;;;;4984549;28;20046;-81
2022/01/01 00:57:01;;;;;;;79.13;23.60;;;8.80;99.90;;;;;;4967697;28;20125;-81
2022/01/01 00:59:29;;;;;;;89.23;23.33;;;8.80;99.90;;;;;;4961029;28;20054;-81
2022/01/01 01:01:55;;;;;;;80.28;21.55;;;8.80;99.90;;;;;;4950939;28;20046;-81
2022/01/01 01:04:21;;;;;;;88.75;23.98;;;8.70;99.90;;;;;;4969301;28;20061;-81
2022/01/01 01:06:46;;;;;;;85.80;22.63;;;8.70;99.90;;;;;;4974868;28;20133;-81
2022/01/01 01:09:12;;;;;;;90.53;24.60;;;8.70;99.90;;;;;;4966585;28;20086;-81
2022/01/01 01:11:43;;;;;;;92.03;28.57;;;8.60;99.90;;;;;;4968491;28;20038;-82
2022/01/01 01:14:18;;;;;;;99.60;30.02;;;8.60;99.90;;;;;;4969781;28;20043;-82
2022/01/01 01:16:44;;;;;;;105.25;31.70;;;8.50;99.90;;;;;;4985961;28;20039;-82
2022/01/01 01:19:10;;;;;;;111.83;33.17;;;8.50;99.90;;;;;;5001679;28;20053;-82
2022/01/01 01:21:35;;;;;;;125.27;35.73;;;8.40;99.90;;;;;;4970547;28;20530;-82
2022/01/01 01:24:02;;;;;;;109.87;35.07;;;8.40;99.90;;;;;;4967846;28;20054;-82
2022/01/01 01:26:29;;;;;;;108.60;37.70;;;8.30;99.90;;;;;;4968834;28;20150;-82
2022/01/01 01:28:56;;;;;;;120.43;40.97;;;8.30;99.90;;;;;;4967447;28;20586;-82
2022/01/01 01:31:24;;;;;;;136.15;45.75;;;8.20;99.90;;;;;;4992348;28;20129;-82
2022/01/01 01:33:50;;;;;;;137.48;48.28;;;8.30;99.90;;;;;;4977916;28;20035;-82
2022/01/01 01:36:16;;;;;;;139.95;49.70;;;8.30;99.90;;;;;;4979238;28;20345;-82
2022/01/01 01:38:42;;;;;;;155.37;55.63;;;8.20;99.90;;;;;;4998835;28;20050;-82
2022/01/01 01:41:09;;;;;;;170.13;57.33;;;8.20;99.90;;;;;;4979382;28;20112;-82
2022/01/01 01:43:35;;;;;;;198.27;66.35;;;8.20;99.90;;;;;;4994126;28;20046;-82
2022/01/01 01:46:06;;;;;;;194.40;70.72;;;8.20;99.90;;;;;;4983770;28;20050;-82
2022/01/01 01:48:37;;;;;;;210.55;78.30;;;8.20;99.90;;;;;;4989444;28;20046;-82
2022/01/01 01:51:03;;;;;;;222.45;82.40;;;8.20;99.90;;;;;;5012777;28;20047;-82
2022/01/01 01:53:30;;;;;;;234.10;83.68;;;8.20;99.90;;;;;;4965173;29;20094;-82
2022/01/01 01:55:57;;;;;;;219.82;83.88;;;8.20;99.90;;;;;;4962361;28;20066;-82
2022/01/01 01:58:23;;;;;;;218.48;81.28;;;8.20;99.90;;;;;;4970698;28;20038;-82
2022/01/01 02:03:34;;;;;;;227.77;78.80;;;8.10;99.90;;;;;;4987122;28;20078;-82
2022/01/01 02:06:00;;;;;;;194.00;69.67;;;8.20;99.90;;;;;;4969979;28;20286;-82
2022/01/01 02:08:26;;;;;;;192.43;67.13;;;8.20;99.90;;;;;;4971118;28;20039;-82
2022/01/01 02:10:53;;;;;;;174.23;64.82;;;8.20;99.90;;;;;;4999221;28;20201;-82
2022/01/01 02:13:31;;;;;;;164.80;62.42;;;8.30;99.90;;;;;;4956125;28;20098;-82
2022/01/01 02:16:17;;;;;;;180.60;60.85;;;8.30;99.90;;;;;;4988236;28;20035;-81
2022/01/01 02:18:43;;;;;;;;;;;8.30;99.90;;;;;;4992573;28;20054;-81
2022/01/01 02:21:09;;;;;;;161.55;53.63;;;8.40;99.90;;;;;;4978628;28;19906;-81
2022/01/01 02:23:39;;;;;;;189.88;55.58;;;8.30;99.90;;;;;;4978014;28;20046;-81
2022/01/01 02:26:09;;;;;;;149.30;50.97;;;8.30;99.90;;;;;;4986208;28;20053;-81
2022/01/01 02:28:35;;;;;;;169.32;50.13;;;8.30;99.90;;;;;;4965488;28;20081;-81
2022/01/01 02:31:01;;;;;;;145.32;45.45;;;8.30;99.90;;;;;;4977263;28;20054;-81
2022/01/01 02:33:31;;;;;;;140.70;45.57;;;8.30;99.90;;;;;;4976865;28;20057;-81
2022/01/01 02:35:58;;;;;;;140.05;43.17;;;8.30;99.90;;;;;;4976700;28;20046;-81
2022/01/01 02:38:25;;;;;;;148.52;44.75;;;8.30;99.90;;;;;;4957509;28;20085;-81
2022/01/01 02:40:51;;;;;;;150.55;45.45;;;8.30;99.90;;;;;;4984855;28;20041;-81
2022/01/01 02:43:18;;;;;;;146.83;46.50;;;8.30;99.90;;;;;;4980211;28;20049;-81
2022/01/01 02:45:43;;;;;;;140.70;46.50;;;8.30;99.90;;;;;;4959351;28;20154;-81
2022/01/01 02:48:12;;;;;;;156.03;47.73;;;8.30;99.90;;;;;;4956154;28;20042;-81
2022/01/01 02:50:38;;;;;;;172.77;49.78;;;8.30;99.90;;;;;;4961394;28;20077;-81
2022/01/01 02:53:16;;;;;;;144.97;49.87;;;8.30;99.90;;;;;;4982233;28;20049;-81
2022/01/01 02:55:45;;;;;;;165.23;53.05;;;8.30;99.90;;;;;;4969307;28;20053;-81
2022/01/01 02:58:12;;;;;;;163.60;51.40;;;8.30;99.90;;;;;;5004552;28;20035;-81
2022/01/01 03:00:39;;;;;;;157.43;51.20;;;8.30;99.90;;;;;;4969649;28;20050;-81
2022/01/01 03:03:05;;;;;;;161.30;52.40;;;8.30;99.90;;;;;;4954128;28;20090;-81
2022/01/01 03:05:31;;;;;;;156.73;52.03;;;8.30;99.90;;;;;;4963081;28;20047;-81
2022/01/01 03:07:58;;;;;;;146.52;49.67;;;8.40;99.90;;;;;;4986963;28;20046;-81
2022/01/01 03:10:24;;;;;;;153.63;48.78;;;8.40;99.90;;;;;;4972224;28;20106;-82
2022/01/01 03:12:53;;;;;;;161.60;50.38;;;8.40;99.90;;;;;;5002645;28;20043;-82
2022/01/01 03:15:19;;;;;;;168.23;47.23;;;8.40;99.90;;;;;;4961721;28;20031;-82
2022/01/01 03:17:47;;;;;;;144.77;46.47;;;8.40;99.90;;;;;;4973044;28;20034;-82
2022/01/01 03:20:13;;;;;;;156.65;45.83;;;8.40;99.90;;;;;;4962659;28;20042;-81
2022/01/01 03:22:42;;;;;;;154.68;47.35;;;8.40;99.90;;;;;;4988817;28;20046;-81
2022/01/01 03:25:08;;;;;;;162.30;47.13;;;8.50;99.90;;;;;;4974479;28;20078;-81
2022/01/01 03:27:34;;;;;;;165.53;45.97;;;8.50;99.90;;;;;;4990751;28;20289;-81
2022/01/01 03:29:59;;;;;;;165.13;47.93;;;8.50;99.90;;;;;;4990852;28;20078;-81
2022/01/01 03:32:25;;;;;;;167.37;47.47;;;8.60;99.90;;;;;;4957431;28;20073;-81
2022/01/01 03:34:56;;;;;;;177.55;48.58;;;8.60;99.90;;;;;;5005748;28;20045;-80
2022/01/01 03:37:21;;;;;;;224.55;57.47;;;8.60;99.90;;;;;;4973508;28;20053;-81
2022/01/01 03:39:47;;;;;;;251.23;57.60;;;8.70;99.90;;;;;;4988876;28;20111;-81
2022/01/01 03:42:13;;;;;;;265.27;60.90;;;8.70;99.90;;;;;;4959367;28;20062;-81
2022/01/01 03:44:39;;;;;;;311.13;63.57;;;8.70;99.90;;;;;;4958666;28;20046;-81
2022/01/01 03:47:10;;;;;;;255.93;58.13;;;8.70;99.90;;;;;;4975362;28;20129;-81
2022/01/01 03:49:37;;;;;;;221.63;56.42;;;8.70;99.90;;;;;;4977107;28;20043;-81
2022/01/01 03:52:03;;;;;;;169.27;49.33;;;8.70;99.90;;;;;;4974768;28;20058;-81
2022/01/01 03:54:29;;;;;;;162.00;45.83;;;8.80;99.90;;;;;;4972770;28;20046;-81
2022/01/01 03:56:56;;;;;;;148.75;43.58;;;8.80;99.90;;;;;;4962347;28;20035;-81
2022/01/01 03:59:21;;;;;;;157.97;44.87;;;8.80;99.90;;;;;;4974328;28;20049;-81
2022/01/01 04:01:47;;;;;;;144.10;44.27;;;8.90;99.90;;;;;;4959729;28;20042;-81
2022/01/01 04:04:13;;;;;;;148.40;46.30;;;8.90;99.90;;;;;;4972618;28;20081;-81
2022/01/01 04:06:45;;;;;;;157.07;49.20;;;8.90;99.90;;;;;;4979888;28;20043;-81
2022/01/01 04:09:11;;;;;;;143.40;51.53;;;8.90;99.90;;;;;;4994618;28;20047;-80
2022/01/01 04:11:36;;;;;;;150.53;56.13;;;8.80;99.90;;;;;;4982050;28;20211;-81
2022/01/01 04:14:04;;;;;;;157.87;56.87;;;8.80;99.90;;;;;;4975618;28;20054;-81
2022/01/01 04:16:29;;;;;;;173.00;60.25;;;8.70;99.90;;;;;;4963864;28;20078;-81
2022/01/01 04:19:04;;;;;;;193.00;66.93;;;8.70;99.90;;;;;;4992604;28;20054;-81
2022/01/01 04:24:36;;;;;;;231.93;84.65;;;8.60;99.90;;;;;;1652031;23;20327;-80
2022/01/01 04:27:04;;;;;;;287.58;94.15;;;8.50;99.90;;;;;;4977350;28;20089;-81
2022/01/01 04:29:36;;;;;;;275.40;93.30;;;8.50;99.90;;;;;;4963750;28;20070;-81
2022/01/01 04:32:09;;;;;;;280.08;99.50;;;8.50;99.90;;;;;;4980625;28;20070;-81
2022/01/01 04:34:36;;;;;;;283.77;107.45;;;8.50;99.90;;;;;;4964583;28;20107;-81
2022/01/01 04:37:11;;;;;;;283.58;111.53;;;8.50;99.90;;;;;;4964335;28;20042;-81
2022/01/01 04:39:38;;;;;;;312.42;116.57;;;8.50;99.90;;;;;;4966267;28;20106;-81
2022/01/01 04:42:04;;;;;;;325.35;116.43;;;8.60;99.90;;;;;;4995060;28;20042;-81
2022/01/01 04:44:30;;;;;;;363.07;118.83;;;8.60;99.90;;;;;;4978189;28;20073;-81
2022/01/01 04:46:56;;;;;;;338.75;113.60;;;8.60;99.90;;;;;;4964238;28;20038;-81
2022/01/01 04:49:22;;;;;;;357.90;113.93;;;8.60;99.90;;;;;;4995074;28;20070;-80
2022/01/01 04:51:49;;;;;;;341.97;103.60;;;8.60;99.90;;;;;;4962944;28;20042;-81
2022/01/01 04:54:16;;;;;;;363.83;99.25;;;8.70;99.90;;;;;;4978563;28;20035;-80
2022/01/01 04:56:47;;;;;;;332.42;83.82;;;8.80;99.90;;;;;;4978208;28;20022;-81
2022/01/01 04:59:14;;;;;;;365.17;80.60;;;8.90;99.90;;;;;;4978326;28;20070;-81
2022/01/01 05:01:41;;;;;;;304.60;66.10;;;9.00;99.90;;;;;;4981274;28;20078;-81
2022/01/01 05:04:07;;;;;;;297.02;60.80;;;9.10;99.90;;;;;;4980129;28;20067;-81
2022/01/01 05:06:40;;;;;;;282.58;54.60;;;9.20;99.90;;;;;;4989551;28;20046;-80
2022/01/01 05:09:06;;;;;;;224.63;49.88;;;9.30;99.90;;;;;;4989889;28;20050;-80
2022/01/01 05:11:32;;;;;;;244.60;44.57;;;9.50;99.90;;;;;;4952857;28;20047;-80
2022/01/01 05:13:58;;;;;;;229.70;43.80;;;9.50;99.90;;;;;;4974463;28;20053;-81
2022/01/01 05:16:24;;;;;;;206.20;41.07;;;9.60;99.90;;;;;;4973895;28;20074;-81
2022/01/01 05:18:51;;;;;;;216.23;42.60;;;9.70;99.90;;;;;;4991139;28;20042;-80
2022/01/01 05:21:17;;;;;;;169.70;38.03;;;9.70;99.90;;;;;;4944173;28;20526;-80
2022/01/01 05:23:43;;;;;;;161.10;34.97;;;9.70;99.90;;;;;;4971644;28;20043;-81
2022/01/01 05:26:09;;;;;;;143.40;34.35;;;9.70;99.90;;;;;;5004689;28;20054;-81
2022/01/01 05:28:34;;;;;;;136.93;33.50;;;9.80;99.90;;;;;;4972246;28;20145;-81
2022/01/01 05:31:00;;;;;;;138.10;34.07;;;9.90;99.90;;;;;;4966891;29;20070;-81
2022/01/01 05:33:26;;;;;;;111.73;29.97;;;9.90;99.90;;;;;;4969684;28;20039;-81
2022/01/01 05:35:53;;;;;;;117.87;31.03;;;10.00;99.90;;;;;;4970404;28;20043;-81
2022/01/01 05:38:19;;;;;;;100.10;28.75;;;10.00;99.90;;;;;;4951337;28;20471;-80
2022/01/01 05:40:45;;;;;;;103.03;28.93;;;10.10;99.90;;;;;;4977654;28;20042;-80
2022/01/01 05:43:17;;;;;;;94.20;24.45;;;10.10;99.90;;;;;;4974751;28;20134;-81
2022/01/01 05:45:43;;;;;;;90.63;23.67;;;10.10;99.90;;;;;;4977669;28;20476;-81
2022/01/01 05:48:10;;;;;;;67.20;21.03;;;10.10;99.90;;;;;;4958275;28;20290;-81
2022/01/01 05:50:36;;;;;;;70.43;20.63;;;10.10;99.90;;;;;;4993383;28;20043;-81
2022/01/01 05:53:04;;;;;;;70.07;20.37;;;10.20;99.90;;;;;;4992928;28;20050;-81
2022/01/01 05:55:31;;;;;;;71.17;19.33;;;10.20;99.90;;;;;;4974506;28;20284;-81
2022/01/01 05:57:56;;;;;;;73.20;19.63;;;10.20;99.90;;;;;;4970349;28;20277;-81
2022/01/01 06:00:22;;;;;;;63.23;19.23;;;10.20;99.90;;;;;;5006354;28;20296;-80
2022/01/01 06:02:48;;;;;;;63.60;19.47;;;10.30;99.90;;;;;;4970228;28;20051;-80
2022/01/01 06:05:14;;;;;;;61.77;19.00;;;10.30;99.90;;;;;;4972122;28;20093;-80
2022/01/01 06:07:40;;;;;;;69.77;19.60;;;10.30;99.90;;;;;;4963579;28;20042;-80
2022/01/01 06:10:06;;;;;;;63.80;19.23;;;10.30;99.90;;;;;;4963025;28;20122;-80
2022/01/01 06:12:32;;;;;;;60.70;19.53;;;10.20;99.90;;;;;;5002436;28;20054;-80
2022/01/01 06:14:57;;;;;;;71.40;21.67;;;10.20;99.90;;;;;;4956798;28;20404;-80
2022/01/01 06:17:23;;;;;;;69.47;20.10;;;10.20;99.90;;;;;;4971067;28;20043;-80
2022/01/01 06:19:49;;;;;;;64.10;20.57;;;10.20;99.90;;;;;;4958922;28;20101;-80
2022/01/01 06:22:15;;;;;;;62.43;20.60;;;10.10;99.90;;;;;;4968856;28;20046;-80
2022/01/01 06:24:40;;;;;;;79.80;23.57;;;10.10;99.90;;;;;;4975363;28;20326;-80
2022/01/01 06:27:06;;;;;;;66.63;23.27;;;10.10;99.90;;;;;;4978120;28;20376;-80
2022/01/01 06:29:32;;;;;;;79.30;24.90;;;10.10;99.90;;;;;;4991661;28;20182;-80
2022/01/01 06:31:57;;;;;;;76.97;24.93;;;10.00;99.90;;;;;;4959510;28;20035;-80
2022/01/01 06:34:23;;;;;;;68.40;24.53;;;10.10;99.90;;;;;;4975925;28;20035;-80
2022/01/01 06:36:51;;;;;;;68.90;24.00;;;10.10;99.90;;;;;;4960818;28;20102;-80
2022/01/01 06:39:17;;;;;;;74.87;26.17;;;10.10;99.90;;;;;;4978136;28;20106;-80
2022/01/01 06:41:43;;;;;;;76.37;25.53;;;10.10;99.90;;;;;;4976461;28;20313;-80
2022/01/01 06:44:21;;;;;;;80.07;25.10;;;10.10;99.90;;;;;;4993548;28;20289;-81
2022/01/01 06:46:46;;;;;;;81.47;27.00;;;10.10;99.90;;;;;;4976671;28;20298;-80
2022/01/01 06:49:12;;;;;;;71.77;26.50;;;10.10;99.90;;;;;;4988121;28;20027;-80
2022/01/01 06:51:38;;;;;;;87.37;27.40;;;10.10;99.90;;;;;;5017671;28;20073;-80
2022/01/01 06:54:05;;;;;;;84.60;28.00;;;10.10;99.90;;;;;;4989379;28;20042;-80
2022/01/01 06:56:32;;;;;;;88.10;30.00;;;10.10;99.90;;;;;;4986232;28;20050;-80
2022/01/01 06:58:58;;;;;;;88.77;28.87;;;10.10;99.90;;;;;;4974081;28;20670;-80
2022/01/01 07:01:30;;;;;;;83.77;30.00;;;10.10;99.90;;;;;;4974959;28;20620;-80
2022/01/01 07:03:59;;;;;;;;;;;10.10;99.90;;;;;;4989869;28;20074;-81
2022/01/01 07:06:24;;;;;;;88.27;30.13;;;10.10;99.90;;;;;;4974273;28;19954;-81
2022/01/01 07:08:50;;;;;;;84.20;30.50;;;10.20;99.90;;;;;;4959253;29;20074;-82
2022/01/01 07:11:16;;;;;;;97.20;33.43;;;10.20;99.90;;;;;;4977111;29;20048;-82
2022/01/01 07:13:42;;;;;;;101.13;34.27;;;10.10;99.90;;;;;;4981780;28;20043;-82
2022/01/01 07:16:08;;;;;;;90.60;35.03;;;10.10;99.90;;;;;;4979121;28;20049;-82
2022/01/01 07:18:33;;;;;;;97.00;35.57;;;10.10;99.90;;;;;;4987446;28;20039;-82
2022/01/01 07:21:00;;;;;;;105.73;37.53;;;10.10;99.90;;;;;;4980413;28;20031;-82
2022/01/01 07:23:26;;;;;;;105.73;37.50;;;10.10;99.90;;;;;;4963189;28;20049;-82
2022/01/01 07:25:52;;;;;;;94.63;35.97;;;10.10;99.90;;;;;;4977747;28;20302;-82
2022/01/01 07:28:18;;;;;;;98.03;36.30;;;10.10;99.90;;;;;;4961746;28;20468;-82
2022/01/01 07:30:44;;;;;;;92.87;36.10;;;10.00;99.90;;;;;;4962450;28;20054;-82
2022/01/01 07:33:14;;;;;;;85.00;35.07;;;10.00;99.90;;;;;;4995355;28;20089;-82
2022/01/01 07:35:40;;;;;;;87.67;34.33;;;10.10;99.90;;;;;;5007573;28;20279;-82
2022/01/01 07:38:06;;;;;;;91.50;34.50;;;10.10;99.90;;;;;;4988812;28;20287;-82
2022/01/01 07:40:34;;;;;;;90.27;35.27;;;10.10;99.90;;;;;;4986828;28;20301;-82
2022/01/01 07:43:13;;;;;;;90.37;35.63;;;10.10;99.90;;;;;;4960856;28;20042;-82
2022/01/01 07:45:40;;;;;;;83.93;35.30;;;10.10;99.90;;;;;;4993401;28;20290;-82
2022/01/01 07:48:07;;;;;;;95.83;36.43;;;10.10;99.90;;;;;;4978811;28;20288;-82
2022/01/01 07:50:34;;;;;;;94.70;37.33;;;10.20;99.90;;;;;;4980115;28;20329;-82
2022/01/01 07:53:00;;;;;;;92.30;36.53;;;10.20;99.90;;;;;;4977220;28;20275;-82
2022/01/01 07:55:26;;;;;;;97.07;37.60;;;10.20;99.90;;;;;;4985642;28;20314;-81
2022/01/01 07:57:52;;;;;;;94.07;35.83;;;10.20;99.90;;;;;;4952262;28;20086;-82
2022/01/01 08:00:24;;;;;;;88.30;35.67;;;10.20;99.90;;;;;;5260928;23;20127;-81
2022/01/01 08:02:50;;;;;;;90.83;35.83;;;10.10;99.90;;;;;;4958116;29;20279;-82
2022/01/01 08:05:16;;;;;;;91.97;36.47;;;10.10;99.90;;;;;;4960287;28;20329;-82
2022/01/01 08:07:44;;;;;;;91.57;35.07;;;10.10;99.90;;;;;;4954483;29;20031;-82
2022/01/01 08:10:12;;;;;;;92.73;35.93;;;10.20;99.90;;;;;;4957143;29;20307;-82
2022/01/01 08:12:38;;;;;;;88.77;35.67;;;10.20;99.90;;;;;;4955861;29;20301;-82
2022/01/01 08:15:08;;;;;;;85.63;35.37;;;10.20;99.90;;;;;;4969470;29;20323;-82
2022/01/01 08:17:34;;;;;;;96.30;35.53;;;10.20;99.90;;;;;;4972911;28;20298;-82
2022/01/01 08:20:10;;;;;;;88.78;36.20;;;10.20;99.90;;;;;;4981641;28;20755;-82
2022/01/01 08:22:36;;;;;;;85.80;36.60;;;10.20;99.90;;;;;;4966879;28;20054;-82
2022/01/01 08:25:02;;;;;;;86.63;35.13;;;10.20;99.90;;;;;;4975784;28;20290;-81
2022/01/01 08:27:28;;;;;;;87.57;34.83;;;10.20;99.90;;;;;;4952227;29;20111;-81
2022/01/01 08:29:55;;;;;;;85.37;33.70;;;10.20;99.90;;;;;;4954231;29;20299;-81
2022/01/01 08:32:21;;;;;;;92.47;34.23;;;10.20;99.90;;;;;;4939494;29;20311;-81
2022/01/01 08:34:46;;;;;;;79.60;33.50;;;10.20;99.90;;;;;;4955686;29;20293;-81
2022/01/01 08:37:12;;;;;;;83.23;32.87;;;10.20;99.90;;;;;;4949892;29;20050;-81
2022/01/01 08:39:38;;;;;;;74.67;32.20;;;10.20;99.90;;;;;;4950602;29;20103;-81
2022/01/01 08:42:10;;;;;;;87.57;32.67;;;10.30;99.90;;;;;;4956624;29;20450;-81
2022/01/01 08:44:36;;;;;;;89.30;33.63;;;10.30;99.90;;;;;;4956948;29;20035;-81
2022/01/01 08:47:02;;;;;;;80.50;31.77;;;10.30;99.90;;;;;;4972592;28;20295;-81
2022/01/01 08:49:27;;;;;;;69.30;30.03;;;10.40;99.90;;;;;;4974150;28;20039;-81
2022/01/01 08:51:55;;;;;;;73.37;29.93;;;10.40;99.90;;;;;;4951650;28;20043;-81
2022/01/01 08:54:21;;;;;;;63.97;27.77;;;10.40;99.90;;;;;;4974034;29;20078;-81
2022/01/01 08:56:47;;;;;;;57.13;27.23;;;10.50;99.90;;;;;;4977035;28;20752;-82
2022/01/01 08:59:16;;;;;;;66.57;27.03;;;10.50;99.90;;;;;;4991646;28;20287;-81
2022/01/01 09:01:42;;;;;;;57.27;26.03;;;10.60;99.90;;;;;;4962801;28;20305;-81
2022/01/01 09:04:07;;;;;;;56.17;24.73;;;10.60;99.90;;;;;;4964301;28;20050;-81
2022/01/01 09:06:33;;;;;;;57.30;24.87;;;10.60;99.90;;;;;;4986209;28;20027;-81
2022/01/01 09:09:00;;;;;;;54.07;24.63;;;10.60;99.90;;;;;;4976520;29;20047;-81
2022/01/01 09:11:26;;;;;;;54.00;24.67;;;10.60;99.90;;;;;;4975941;29;20043;-81
2022/01/01 09:13:51;;;;;;;58.03;24.97;;;10.60;99.90;;;;;;4976040;28;20298;-81
2022/01/01 09:16:19;;;;;;;46.23;22.03;;;10.70;99.90;;;;;;4991438;28;20057;-81
2022/01/01 09:18:46;;;;;;;55.97;22.53;;;10.70;99.90;;;;;;4994151;28;20046;-81
2022/01/01 09:21:15;;;;;;;46.40;20.33;;;10.70;99.90;;;;;;4992279;28;20311;-81
2022/01/01 09:23:41;;;;;;;47.00;19.97;;;10.70;99.90;;;;;;4976431;28;20278;-81
2022/01/01 09:26:07;;;;;;;41.17;19.07;;;10.70;99.90;;;;;;4960996;29;20038;-81
2022/01/01 09:28:34;;;;;;;45.47;18.77;;;10.70;99.90;;;;;;4976673;28;20351;-81
2022/01/01 09:31:01;;;;;;;42.60;19.00;;;10.70;99.90;;;;;;4976043;29;20035;-81
2022/01/01 09:33:29;;;;;;;40.90;17.03;;;10.80;99.90;;;;;;4975081;29;20283;-81
2022/01/01 09:36:01;;;;;;;39.63;17.10;;;10.70;99.90;;;;;;4941211;29;20275;-82
2022/01/01 09:38:31;;;;;;;41.00;16.33;;;10.80;99.90;;;;;;4960814;29;20337;-81
2022/01/01 09:41:04;;;;;;;30.60;15.10;;;10.80;99.90;;;;;;4951671;29;20299;-81
2022/01/01 09:43:31;;;;;;;32.03;13.37;;;10.80;99.90;;;;;;4973147;29;20306;-81
2022/01/01 09:45:59;;;;;;;32.93;13.83;;;10.80;99.90;;;;;;4965777;29;20270;-81
2022/01/01 09:48:26;;;;;;;23.47;12.23;;;10.80;99.90;;;;;;4963661;28;20353;-81
2022/01/01 09:50:54;;;;;;;29.73;12.57;;;10.80;99.90;;;;;;4960540;29;20294;-81
2022/01/01 09:53:23;;;;;;;29.57;12.77;;;10.90;99.90;;;;;;4981280;28;20291;-81
2022/01/01 09:55:53;;;;;;;27.23;11.43;;;10.90;99.90;;;;;;4976553;29;20303;-81
2022/01/01 09:58:26;;;;;;;27.73;11.60;;;10.90;99.90;;;;;;4956587;29;20366;-81
2022/01/01 10:00:53;;;;;;;24.13;11.63;;;10.90;99.90;;;;;;4960303;28;20299;-80
2022/01/01 10:03:56;;;;;;;21.23;10.67;;;11.00;99.90;;;;;;4973114;29;20291;-81
2022/01/01 10:06:23;;;;;;;25.93;11.13;;;11.00;99.90;;;;;;4966105;28;20313;-81
2022/01/01 10:08:57;;;;;;;31.30;11.97;;;11.00;99.90;;;;;;4988586;28;20291;-81
2022/01/01 10:11:24;;;;;;;25.73;11.85;;;11.00;99.90;;;;;;4978563;28;20631;-82
2022/01/01 10:13:50;;;;;;;23.67;11.53;;;11.10;99.90;;;;;;4995663;28;20467;-81
2022/01/01 10:16:16;;;;;;;22.80;11.13;;;11.10;99.90;;;;;;4968464;29;20287;-82
2022/01/01 10:18:48;;;;;;;27.83;11.50;;;11.10;99.90;;;;;;4960020;29;20054;-81
2022/01/01 10:21:16;;;;;;;23.33;11.67;;;11.20;99.90;;;;;;4975106;29;20275;-83
2022/01/01 10:23:49;;;;;;;22.20;11.00;;;11.20;99.90;;;;;;4991803;28;20278;-82
2022/01/01 10:29:26;;;;;;;22.07;11.23;;;11.30;99.90;;;;;;4972274;29;20338;-82
2022/01/01 10:32:03;;;;;;;23.57;10.07;;;11.30;99.90;;;;;;4973946;28;20403;-82
2022/01/01 10:34:34;;;;;;;24.97;10.23;;;11.40;99.90;;;;;;4958264;29;20267;-82
2022/01/01 10:37:00;;;;;;;23.73;9.63;;;11.40;99.90;;;;;;4960832;28;20275;-82
2022/01/01 10:39:27;;;;;;;19.83;9.83;;;11.50;99.90;;;;;;4958831;28;20291;-82
2022/01/01 10:41:59;;;;;;;23.30;9.80;;;11.60;99.90;;;;;;4958462;29;20279;-82
2022/01/01 10:44:33;;;;;;;21.27;9.90;;;11.60;99.90;;;;;;4965686;28;20344;-82
2022/01/01 10:47:35;;;;;;;24.73;9.40;;;11.60;99.90;;;;;;4973654;28;20294;-82
2022/01/01 10:52:42;;;;;;;20.23;8.90;;;11.60;99.90;;;;;;4977849;28;20287;-83
2022/01/01 10:55:08;;;;;;;20.60;9.20;;;11.70;99.90;;;;;;4946663;29;20307;-83
2022/01/01 10:57:39;;;;;;;21.23;8.93;;;11.70;99.90;;;;;;4945270;29;20291;-83
2022/01/01 11:00:20;;;;;;;24.90;9.97;;;11.80;99.90;;;;;;4953345;29;20196;-83
2022/01/01 11:02:55;;;;;;;19.83;9.70;;;11.80;99.90;;;;;;4970006;28;20314;-83
2022/01/01 11:05:30;;;;;;;22.37;9.63;;;11.80;99.90;;;;;;4956117;28;20299;-83
2022/01/01 11:07:57;;;;;;;18.13;9.45;;;11.90;99.90;;;;;;4966633;29;20282;-83
2022/01/01 11:10:24;;;;;;;29.20;10.80;;;11.90;99.90;;;;;;4964947;28;20050;-83
2022/01/01 11:12:51;;;;;;;23.37;9.90;;;11.90;99.90;;;;;;4973898;28;20317;-83
2022/01/01 11:15:17;;;;;;;18.47;9.67;;;12.00;99.90;;;;;;4986807;28;20305;-83
2022/01/01 11:17:43;;;;;;;21.30;10.23;;;12.00;99.90;;;;;;4969522;28;20291;-83
2022/01/01 11:20:10;;;;;;;19.23;9.07;;;12.10;99.90;;;;;;4964266;29;20058;-82
2022/01/01 11:22:36;;;;;;;21.20;9.13;;;12.10;99.90;;;;;;4934210;29;20294;-82
2022/01/01 11:25:03;;;;;;;20.87;9.47;;;12.20;99.90;;;;;;4966446;28;20801;-82
2022/01/01 11:27:29;;;;;;;20.93;9.67;;;12.20;99.90;;;;;;4953913;29;20295;-82
2022/01/01 11:29:56;;;;;;;21.57;10.50;;;12.10;99.90;;;;;;4970414;28;20307;-82
2022/01/01 11:32:38;;;;;;;25.70;10.50;;;12.10;99.90;;;;;;4963447;29;20404;-82
2022/01/01 11:35:17;;;;;;;20.07;9.40;;;12.10;99.90;;;;;;4964294;28;20295;-82
2022/01/01 11:37:46;;;;;;;23.37;9.40;;;12.10;99.90;;;;;;4975400;28;20784;-82
2022/01/01 11:40:16;;;;;;;22.43;10.17;;;12.10;99.90;;;;;;4963551;29;20558;-82
2022/01/01 11:42:46;;;;;;;24.27;9.80;;;12.10;99.90;;;;;;4947177;29;20301;-82
2022/01/01 11:45:32;;;;;;;19.47;8.70;;;12.00;99.90;;;;;;4950959;28;20285;-82
2022/01/01 11:48:25;;;;;;;21.30;9.53;;;12.00;99.90;;;;;;4959937;28;20680;-82
2022/01/01 11:50:51;;;;;;;18.80;8.67;;;12.00;99.90;;;;;;4956643;29;20307;-82
2022/01/01 11:53:28;;;;;;;22.57;10.33;;;12.00;99.90;;;;;;4966019;28;20636;-82
2022/01/01 11:56:11;;;;;;;22.53;9.00;;;12.00;99.90;;;;;;4954641;28;20114;-82
2022/01/01 11:58:52;;;;;;;16.77;8.83;;;12.00;99.90;;;;;;4960122;29;20349;-83
2022/01/01 12:01:22;;;;;;;21.50;9.10;;;12.10;99.90;;;;;;4964006;28;20684;-83
2022/01/01 12:03:50;;;;;;;22.97;9.10;;;12.10;99.90;;;;;;4964660;28;20296;-82
2022/01/01 12:06:16;;;;;;;21.63;9.57;;;12.10;99.90;;;;;;4966864;28;21065;-83
2022/01/01 12:08:48;;;;;;;19.70;9.27;;;12.10;99.90;;;;;;4948595;28;20355;-83
2022/01/01 12:11:31;;;;;;;19.87;9.07;;;12.10;99.90;;;;;;4930021;29;20290;-82
2022/01/01 12:13:58;;;;;;;20.83;9.17;;;12.10;99.90;;;;;;4940244;28;20457;-82
2022/01/01 12:16:24;;;;;;;18.93;8.40;;;12.10;99.90;;;;;;4959180;28;20296;-82
2022/01/01 12:19:00;;;;;;;22.03;9.50;;;12.10;99.90;;;;;;4945139;28;20291;-83
2022/01/01 12:21:27;;;;;;;18.53;8.10;;;12.10;99.90;;;;;;4985039;28;20124;-82
2022/01/01 12:23:58;;;;;;;19.17;8.90;;;12.10;99.90;;;;;;4948982;28;20302;-83
2022/01/01 12:26:32;;;;;;;17.63;9.00;;;12.10;99.90;;;;;;4959166;28;20283;-83
2022/01/01 12:29:09;;;;;;;19.03;9.73;;;12.10;99.90;;;;;;4954350;28;20318;-83
2022/01/01 12:31:34;;;;;;;16.10;9.57;;;12.10;99.90;;;;;;4927709;29;20663;-83
2022/01/01 12:34:12;;;;;;;19.03;9.30;;;12.10;99.90;;;;;;4934403;29;20295;-83
2022/01/01 12:36:45;;;;;;;22.43;10.30;;;12.10;99.90;;;;;;4949816;28;20036;-83
2022/01/01 12:39:11;;;;;;;17.50;9.23;;;12.20;99.90;;;;;;4967349;28;20302;-83
2022/01/01 12:41:44;;;;;;;16.33;9.30;;;12.20;99.90;;;;;;4954790;28;20291;-83
2022/01/01 12:44:20;;;;;;;20.17;10.53;;;12.30;99.90;;;;;;4947050;28;20299;-83